Leland, IL (60531)

06:11 AM CDT on Σεπτέμβριος 01, 2014 (GMT -0500)
Weather at Chuck and Pats House | Change Station
CLOSE
Current Station
Personal Weather Stations
Location: Serena, IL
Elevation: 633 ft
Nearby Weather Stations

Elev 633 ft 41.51 °N, 88.74 °W | Updated 4 seconds ago

Νεφοσκεπής
Νεφοσκεπής
70.8 ° F
Feels Like 70.8 ° F
N
6.7
Ανεμος Μεταβλητός Ανεμος from Νότιος
Gusts 8.1 mph

Σήμερα
High -- | Low -- ° F
--% Chance of Precip.
Yesterday
High -- | Low -- ° F
Precip. -- in
6:21 AM 7:28 PM
Μηνίσκος, 40% visible
Ατμοσφαιρική Πίεση 29.76 in
Ορατότητα 6.0 Μίλια
Σύννεφα Νεφοσκεπής 1400 ft
Σημείο Δρόσου 69 ° F
Υγρασία 95%
Rainfall 0.00 in
Snow Depth Not available.
Υπεριώδης ακτινοβολία (UV) 0 out of 12
Pollen 9.00 out of 12
Air Quality Not available.
Flu Activity Not available.
METAR KARR 011052Z AUTO 15006KT 6SM BR OVC014 23/21 A2977 RMK AO2 SLP076 T02280206

More Conditions Fewer Conditions

Ατμοσφαιρική Πίεση 29.76 in
Ορατότητα 6.0 Μίλια
Σύννεφα Νεφοσκεπής 1400 ft
Σημείο Δρόσου 69 ° F
Υγρασία 95%
Rainfall 0.00 in
Snow Depth Not available.
Υπεριώδης ακτινοβολία (UV) 0 out of 12
Pollen 9.00 out of 12
Air Quality Not available.
Flu Activity Not available.
METAR KARR 011052Z AUTO 15006KT 6SM BR OVC014 23/21 A2977 RMK AO2 SLP076 T02280206

More Conditions Fewer Conditions

10-Day Weather Forecast

Almanac

Αστρονομία

Sep. 01, 2014 Rise Set
Actual Time 6:21 AM CDT 7:28 PM CDT
Civil Twilight 5:52 AM CDT 7:56 PM CDT
Nautical Twilight 5:18 AM CDT 8:30 PM CDT
Astronomical Twilight 4:42 AM CDT 9:06 PM CDT
Moon 1:12 PM CDT 11:23 PM CDT
Length Of Visible Light 14h 04m
Διάρκεια ημέρας
13h 07m
Tomorrow will be 2m 40s shorter.
Μηνίσκος, 40% of the Moon is Illuminated
Σήμερα
Μηνίσκος
Sep 2
Πρώτο τέταρτο
Sep 8
Πανσέληνος
Sep 15
Τελευταίο τέταρτο
Sep 24
New

Today's Extremes

State Highs State Lows

Community

WunderPhotos

Upload Photos

1,749,188 photos uploaded!

Nearby

Snow Depth

Station Depth Elevation
No new snow has been reported.

Earthquake Activity

City Distance Mag. Time & Date
No recent earthquake activity has been reported nearby.
Minimum magnitude displayed is 2.5.

Coastal Water Temperatures

Τοποθεσία Θερμοκρασία
No Stations Reporting

Nearby Weather Stations